createdAt,value
2024-03-15T00:00:31.868Z,1.51
2024-03-15T00:01:31.863Z,1.52
2024-03-15T00:02:31.853Z,1.54
2024-03-15T00:03:32.013Z,1.54
2024-03-15T00:04:31.954Z,1.57
2024-03-15T00:05:32.063Z,1.54
2024-03-15T00:06:32.170Z,1.54
2024-03-15T00:07:32.208Z,1.58
2024-03-15T00:08:32.249Z,1.56
2024-03-15T00:09:32.385Z,1.53
2024-03-15T00:10:32.420Z,1.56
2024-03-15T00:11:32.517Z,1.55
2024-03-15T00:12:32.587Z,1.50
2024-03-15T00:13:32.618Z,1.56
2024-03-15T00:14:32.692Z,1.60
2024-03-15T00:15:32.807Z,1.55
2024-03-15T00:16:32.829Z,1.56
2024-03-15T00:17:32.878Z,1.56
2024-03-15T00:18:33.046Z,1.57
2024-03-15T00:19:33.043Z,1.55
2024-03-15T00:20:33.105Z,1.55
2024-03-15T00:21:33.192Z,1.60
2024-03-15T00:22:33.212Z,1.54
2024-03-15T00:23:33.292Z,1.56
2024-03-15T00:24:33.368Z,1.56
2024-03-15T00:25:33.452Z,1.54
2024-03-15T00:26:33.523Z,1.58
2024-03-15T00:27:33.609Z,1.59
2024-03-15T00:28:33.650Z,1.57
2024-03-15T00:29:33.727Z,1.53
2024-03-15T00:30:33.820Z,1.55
2024-03-15T00:31:33.843Z,1.55
2024-03-15T00:32:33.959Z,1.60
2024-03-15T00:33:34.086Z,1.58
2024-03-15T00:34:34.021Z,1.60
2024-03-15T00:35:34.073Z,1.59
2024-03-15T00:36:34.214Z,1.57
2024-03-15T00:37:34.208Z,1.53
2024-03-15T00:38:34.263Z,1.56
2024-03-15T00:39:34.427Z,1.57
2024-03-15T00:40:34.387Z,1.52
2024-03-15T00:41:34.424Z,1.56
2024-03-15T00:42:34.595Z,1.57
2024-03-15T00:43:34.576Z,1.57
2024-03-15T00:44:34.652Z,1.57
2024-03-15T00:45:34.795Z,1.57
2024-03-15T00:46:34.697Z,1.56
2024-03-15T00:47:34.816Z,1.57
2024-03-15T00:48:34.959Z,1.57
2024-03-15T00:49:34.926Z,1.55
2024-03-15T00:50:35.012Z,1.57
2024-03-15T00:51:35.097Z,1.52
2024-03-15T00:52:35.176Z,1.52
2024-03-15T00:53:35.210Z,1.56
2024-03-15T00:54:35.279Z,1.57
2024-03-15T00:55:35.339Z,1.57
2024-03-15T00:56:35.452Z,1.57
2024-03-15T00:57:35.629Z,1.54
2024-03-15T00:58:35.572Z,1.54
2024-03-15T00:59:35.673Z,1.56
2024-03-15T01:00:35.933Z,1.52
2024-03-15T01:01:35.796Z,1.55
2024-03-15T01:02:35.846Z,1.57
2024-03-15T01:03:35.954Z,1.56
2024-03-15T01:04:35.952Z,1.54
2024-03-15T01:05:36.011Z,1.59
2024-03-15T01:06:36.086Z,1.55
2024-03-15T01:07:36.157Z,1.55
2024-03-15T01:08:36.160Z,1.54
2024-03-15T01:09:36.314Z,1.55
2024-03-15T01:10:36.294Z,1.52
2024-03-15T01:11:36.453Z,1.55
2024-03-15T01:12:36.497Z,1.56
2024-03-15T01:13:36.474Z,1.59
2024-03-15T01:14:36.550Z,1.52
2024-03-15T01:15:36.633Z,1.52
2024-03-15T01:16:36.632Z,1.50
2024-03-15T01:17:36.821Z,1.53
2024-03-15T01:18:36.771Z,1.52
2024-03-15T01:19:36.786Z,1.49
2024-03-15T01:20:36.880Z,1.54
2024-03-15T01:21:37.008Z,1.53
2024-03-15T01:22:37.058Z,1.52
2024-03-15T01:23:37.101Z,1.51
2024-03-15T01:24:37.247Z,1.53
2024-03-15T01:25:37.185Z,1.51
2024-03-15T01:26:37.233Z,1.52
2024-03-15T01:27:37.403Z,1.55
2024-03-15T01:28:37.411Z,1.52
2024-03-15T01:29:37.472Z,1.53
2024-03-15T01:30:37.574Z,1.49
2024-03-15T01:31:37.563Z,1.52
2024-03-15T01:32:37.667Z,1.52
2024-03-15T01:33:37.898Z,1.50
2024-03-15T01:34:38.371Z,1.50
2024-03-15T01:35:37.794Z,1.53
2024-03-15T01:36:37.938Z,1.49
2024-03-15T01:37:37.880Z,1.50
2024-03-15T01:38:37.951Z,1.53
2024-03-15T01:39:38.078Z,1.51
2024-03-15T01:40:38.061Z,1.49
2024-03-15T01:41:38.050Z,1.49
2024-03-15T01:42:38.177Z,1.51
2024-03-15T01:43:38.150Z,1.50
2024-03-15T01:44:38.159Z,1.49
2024-03-15T01:45:38.312Z,1.52
2024-03-15T01:46:38.276Z,1.52
2024-03-15T01:47:38.386Z,1.51
2024-03-15T01:48:38.382Z,1.52
2024-03-15T01:49:38.425Z,1.50
2024-03-15T01:50:38.392Z,1.52
2024-03-15T01:51:38.588Z,1.48
2024-03-15T01:52:38.498Z,1.49
2024-03-15T01:53:38.562Z,1.49
2024-03-15T01:54:38.676Z,1.48
2024-03-15T01:55:38.615Z,1.50
2024-03-15T01:56:38.621Z,1.45
2024-03-15T01:57:38.675Z,1.48
2024-03-15T01:58:38.619Z,1.49
2024-03-15T01:59:38.694Z,1.51
2024-03-15T02:00:38.731Z,1.52
2024-03-15T02:01:38.749Z,1.47
2024-03-15T02:02:38.716Z,1.49
2024-03-15T02:03:38.735Z,1.46
2024-03-15T02:04:38.836Z,1.49
2024-03-15T02:05:38.792Z,1.48
2024-03-15T02:06:38.851Z,1.55
2024-03-15T02:07:38.804Z,1.46
2024-03-15T02:08:38.839Z,1.46
2024-03-15T02:09:38.982Z,1.50
2024-03-15T02:10:39.036Z,1.48
2024-03-15T02:11:38.984Z,1.48
2024-03-15T02:12:39.031Z,1.46
2024-03-15T02:13:39.035Z,1.50
2024-03-15T02:14:39.060Z,1.45
2024-03-15T02:15:39.146Z,1.45
2024-03-15T02:16:39.088Z,1.46
2024-03-15T02:17:39.264Z,1.46
2024-03-15T02:18:39.207Z,1.46
2024-03-15T02:19:39.189Z,1.47
2024-03-15T02:20:39.226Z,1.46
2024-03-15T02:21:39.307Z,1.46
2024-03-15T02:22:39.243Z,1.51
2024-03-15T02:23:39.261Z,1.46
2024-03-15T02:24:39.331Z,1.47
2024-03-15T02:25:39.336Z,1.45
2024-03-15T02:26:39.341Z,1.47
2024-03-15T02:27:39.401Z,1.46
2024-03-15T02:28:39.390Z,1.44
2024-03-15T02:29:39.362Z,1.50
2024-03-15T02:30:39.499Z,1.44
2024-03-15T02:31:39.411Z,1.45
2024-03-15T02:32:39.402Z,1.45
2024-03-15T02:33:39.552Z,1.45
2024-03-15T02:34:39.724Z,1.47
2024-03-15T02:35:39.506Z,1.47
2024-03-15T02:36:39.575Z,1.45
2024-03-15T02:37:39.599Z,1.44
2024-03-15T02:38:39.596Z,1.45
2024-03-15T02:39:39.609Z,1.46
2024-03-15T02:40:39.579Z,1.45
2024-03-15T02:41:39.641Z,1.48
2024-03-15T02:42:39.631Z,1.44
2024-03-15T02:43:39.660Z,1.45
2024-03-15T02:44:39.681Z,1.44
2024-03-15T02:45:39.995Z,1.44
2024-03-15T02:46:39.687Z,1.45
2024-03-15T02:47:39.668Z,1.46
2024-03-15T02:48:39.730Z,1.45
2024-03-15T02:49:39.656Z,1.48
2024-03-15T02:50:39.746Z,1.43
2024-03-15T02:51:39.755Z,1.47
2024-03-15T02:52:39.712Z,1.44
2024-03-15T02:53:39.769Z,1.45
2024-03-15T02:54:39.851Z,1.45
2024-03-15T02:56:22.492Z,0.50
2024-03-15T02:57:22.550Z,0.50
2024-03-15T02:58:22.509Z,0.50
2024-03-15T02:59:22.507Z,0.50
2024-03-15T03:00:22.531Z,0.50
2024-03-15T03:01:22.524Z,0.51
2024-03-15T03:02:22.514Z,0.51
2024-03-15T03:03:22.544Z,0.51
2024-03-15T03:04:23.772Z,0.52
2024-03-15T03:05:22.756Z,0.50
2024-03-15T03:06:22.548Z,0.51
2024-03-15T03:07:22.510Z,0.51
2024-03-15T03:08:22.515Z,0.52
2024-03-15T03:09:22.557Z,0.50
2024-03-15T03:10:22.502Z,0.52
2024-03-15T03:11:22.482Z,0.52
2024-03-15T03:12:22.589Z,0.51
2024-03-15T03:13:22.538Z,0.51
2024-03-15T03:14:22.496Z,0.51
2024-03-15T03:15:22.554Z,0.52
2024-03-15T03:16:22.539Z,0.51
2024-03-15T03:17:22.518Z,0.51
2024-03-15T03:18:22.630Z,0.52
2024-03-15T03:19:22.541Z,0.52
2024-03-15T03:20:22.548Z,0.52
2024-03-15T03:21:25.603Z,0.52
2024-03-15T03:22:22.520Z,0.52
2024-03-15T03:23:22.528Z,0.52
2024-03-15T03:24:22.521Z,0.52
2024-03-15T03:25:22.529Z,0.52
2024-03-15T03:26:22.552Z,0.52
2024-03-15T03:27:22.569Z,0.53
2024-03-15T03:28:22.515Z,0.52
2024-03-15T03:29:22.492Z,0.53
2024-03-15T03:30:22.536Z,0.52
2024-03-15T03:31:22.523Z,0.52
2024-03-15T03:32:22.551Z,0.52
2024-03-15T03:33:22.617Z,0.52
2024-03-15T03:34:22.545Z,0.52
2024-03-15T03:35:22.539Z,0.52
2024-03-15T03:36:22.660Z,0.54
2024-03-15T03:37:22.564Z,0.51
2024-03-15T03:38:22.568Z,0.52
2024-03-15T03:39:22.772Z,0.52
2024-03-15T03:40:22.545Z,0.51
2024-03-15T03:41:22.557Z,0.52
2024-03-15T03:42:23.133Z,0.51
2024-03-15T03:43:22.563Z,0.53
2024-03-15T03:44:22.574Z,0.51
2024-03-15T03:45:22.632Z,0.52
2024-03-15T03:46:22.632Z,0.51
2024-03-15T03:47:22.678Z,0.52
2024-03-15T03:48:22.611Z,0.52
2024-03-15T03:49:22.541Z,0.52
2024-03-15T03:50:22.569Z,0.52
2024-03-15T03:51:22.590Z,0.52
2024-03-15T03:52:22.570Z,0.53
2024-03-15T03:53:22.581Z,0.52
2024-03-15T03:54:22.595Z,0.51
2024-03-15T03:55:22.571Z,0.52
2024-03-15T03:56:22.558Z,0.52
2024-03-15T03:57:35.160Z,0.51
2024-03-15T03:58:23.610Z,0.51
2024-03-15T03:59:22.571Z,0.52
2024-03-15T04:00:22.587Z,0.52
2024-03-15T04:01:22.653Z,0.52
2024-03-15T04:02:22.575Z,0.53
2024-03-15T04:03:22.606Z,0.54
2024-03-15T04:04:22.543Z,0.53
2024-03-15T04:05:22.566Z,0.53
2024-03-15T04:06:22.627Z,0.52
2024-03-15T04:07:22.588Z,0.53
2024-03-15T04:08:22.580Z,0.52
2024-03-15T04:09:22.626Z,0.52
2024-03-15T04:10:22.624Z,0.51
2024-03-15T04:11:22.650Z,0.52
2024-03-15T04:12:22.647Z,0.53
2024-03-15T04:13:22.657Z,0.52
2024-03-15T04:14:22.645Z,0.52
2024-03-15T04:15:29.195Z,0.52
2024-03-15T04:16:23.736Z,0.52
2024-03-15T04:17:22.742Z,0.52
2024-03-15T04:18:22.799Z,0.53
2024-03-15T04:19:22.692Z,0.52
2024-03-15T04:20:22.712Z,0.52
2024-03-15T04:21:22.733Z,0.53
2024-03-15T04:22:22.718Z,0.54
2024-03-15T04:23:22.957Z,0.54
2024-03-15T04:24:22.715Z,0.53
2024-03-15T04:25:22.694Z,0.54
2024-03-15T04:26:22.752Z,0.53
2024-03-15T04:27:22.754Z,0.52
2024-03-15T04:28:22.707Z,0.52
2024-03-15T04:29:22.715Z,0.52
2024-03-15T04:30:22.780Z,0.52
2024-03-15T04:31:22.756Z,0.52
2024-03-15T04:32:30.103Z,0.50
2024-03-15T04:33:30.054Z,0.50
2024-03-15T04:34:30.020Z,0.50
2024-03-15T04:35:30.348Z,0.50
2024-03-15T04:36:30.033Z,0.50
2024-03-15T04:37:30.038Z,0.50
2024-03-15T04:38:30.050Z,0.52
2024-03-15T04:39:30.055Z,0.50
2024-03-15T04:40:30.318Z,0.51
2024-03-15T04:41:30.044Z,0.52
2024-03-15T04:42:30.064Z,0.52
2024-03-15T04:43:30.032Z,0.51
2024-03-15T04:44:30.044Z,0.51
2024-03-15T04:45:30.120Z,0.51
2024-03-15T04:46:30.134Z,0.52
2024-03-15T04:47:30.097Z,0.52
2024-03-15T04:48:30.091Z,0.51
2024-03-15T04:49:30.072Z,0.51
2024-03-15T04:50:30.047Z,0.51
2024-03-15T04:51:30.105Z,0.50
2024-03-15T04:52:30.098Z,0.50
2024-03-15T04:53:30.097Z,0.50
2024-03-15T04:54:30.126Z,0.51
2024-03-15T04:55:32.413Z,0.51
2024-03-15T04:56:30.076Z,0.52
2024-03-15T04:57:30.072Z,0.53
2024-03-15T04:58:30.087Z,0.50
2024-03-15T04:59:30.094Z,0.52
2024-03-15T05:00:30.125Z,0.52
2024-03-15T05:01:30.099Z,0.52
2024-03-15T05:02:30.085Z,0.52
2024-03-15T05:03:30.105Z,0.52
2024-03-15T05:04:30.123Z,0.52
2024-03-15T05:05:30.075Z,0.53
2024-03-15T05:06:31.641Z,0.51
2024-03-15T05:07:30.122Z,0.52
2024-03-15T05:08:30.117Z,0.51
2024-03-15T05:09:30.196Z,0.51
2024-03-15T05:10:30.196Z,0.51
2024-03-15T05:11:30.138Z,0.51
2024-03-15T05:12:30.171Z,0.51
2024-03-15T05:13:30.107Z,0.50
2024-03-15T05:14:30.088Z,0.50
2024-03-15T05:15:30.197Z,0.51
2024-03-15T05:16:30.122Z,0.50
2024-03-15T05:17:30.097Z,0.51
2024-03-15T05:18:30.155Z,0.51
2024-03-15T05:19:33.258Z,0.50
2024-03-15T05:20:31.119Z,0.50
2024-03-15T05:21:30.261Z,0.49
2024-03-15T05:22:30.096Z,0.49
2024-03-15T05:23:30.102Z,0.48
2024-03-15T05:24:30.158Z,0.47
2024-03-15T05:25:30.132Z,0.51
2024-03-15T05:26:30.096Z,0.50
2024-03-15T05:27:30.146Z,0.50
2024-03-15T05:28:30.122Z,0.51
2024-03-15T05:29:30.107Z,0.50
2024-03-15T05:30:30.140Z,0.51
2024-03-15T05:31:30.122Z,0.50
2024-03-15T05:32:30.117Z,0.51
2024-03-15T05:33:30.194Z,0.52
2024-03-15T05:34:30.109Z,0.51
2024-03-15T05:35:30.135Z,0.50
2024-03-15T05:36:30.157Z,0.51
2024-03-15T05:37:30.258Z,0.52
2024-03-15T05:38:30.211Z,0.52
2024-03-15T05:39:30.257Z,0.52
2024-03-15T05:40:30.146Z,0.51
2024-03-15T05:41:30.122Z,0.51
2024-03-15T05:42:30.137Z,0.51
2024-03-15T05:43:30.142Z,0.51
2024-03-15T05:44:30.144Z,0.51
2024-03-15T05:45:30.177Z,0.50
2024-03-15T05:46:30.155Z,0.50
2024-03-15T05:47:30.228Z,0.50
2024-03-15T05:48:30.233Z,0.50
2024-03-15T05:49:30.151Z,0.50
2024-03-15T05:50:30.195Z,0.51
2024-03-15T05:51:30.129Z,0.50
2024-03-15T05:52:30.130Z,0.52
2024-03-15T05:53:30.152Z,0.52
2024-03-15T05:54:30.231Z,0.53
2024-03-15T05:55:30.156Z,0.51
2024-03-15T05:56:30.164Z,0.51
2024-03-15T05:57:30.156Z,0.51
2024-03-15T05:58:30.158Z,0.51
2024-03-15T05:59:30.159Z,0.51
2024-03-15T06:00:30.250Z,0.51
2024-03-15T06:01:30.190Z,0.51
2024-03-15T06:02:30.164Z,0.51
2024-03-15T06:03:30.175Z,0.54
2024-03-15T06:04:30.185Z,0.55
2024-03-15T06:05:30.184Z,0.57
2024-03-15T06:06:30.235Z,0.56
2024-03-15T06:07:30.159Z,0.55
2024-03-15T06:08:30.151Z,0.54
2024-03-15T06:09:30.237Z,0.52
2024-03-15T06:10:30.222Z,0.52
2024-03-15T06:11:30.242Z,0.50
2024-03-15T06:12:30.374Z,0.50
2024-03-15T06:13:30.347Z,0.52
2024-03-15T06:14:31.615Z,0.51
2024-03-15T06:15:30.441Z,0.50
2024-03-15T06:16:30.388Z,0.50
2024-03-15T06:17:30.431Z,0.50
2024-03-15T06:18:30.533Z,0.50
2024-03-15T06:19:30.441Z,0.51
2024-03-15T06:20:30.408Z,0.50
2024-03-15T06:21:30.457Z,0.51
2024-03-15T06:22:30.404Z,0.50
2024-03-15T06:23:30.405Z,0.50
2024-03-15T06:24:30.382Z,0.50
2024-03-15T06:25:30.403Z,0.51
2024-03-15T06:26:30.426Z,0.52
2024-03-15T06:27:30.400Z,0.51
2024-03-15T06:28:30.412Z,0.51
2024-03-15T06:29:30.387Z,0.51
2024-03-15T06:30:30.604Z,0.51
2024-03-15T06:31:30.399Z,0.50
2024-03-15T06:32:30.502Z,0.51
2024-03-15T06:33:30.557Z,0.53
2024-03-15T06:34:30.519Z,0.51
2024-03-15T06:35:30.434Z,0.50
2024-03-15T06:36:30.428Z,0.51
2024-03-15T06:37:30.449Z,0.50
2024-03-15T06:38:30.428Z,0.51
2024-03-15T06:39:30.434Z,0.52
2024-03-15T06:40:30.435Z,0.50
2024-03-15T06:41:30.472Z,0.51
2024-03-15T06:42:30.773Z,0.52
2024-03-15T06:43:30.408Z,0.54
2024-03-15T06:44:30.460Z,0.55
2024-03-15T06:45:30.429Z,0.55
2024-03-15T06:46:30.437Z,0.58
2024-03-15T06:47:30.431Z,0.59
2024-03-15T06:48:30.440Z,0.62
2024-03-15T06:49:30.428Z,0.63
2024-03-15T06:50:30.392Z,0.65
2024-03-15T06:51:30.427Z,0.66
2024-03-15T06:52:30.413Z,0.69
2024-03-15T06:53:30.415Z,0.70
2024-03-15T06:54:30.458Z,0.72
2024-03-15T06:55:30.452Z,0.74
2024-03-15T06:56:30.441Z,0.76
2024-03-15T06:57:30.780Z,0.77
2024-03-15T06:58:30.434Z,0.79
2024-03-15T06:59:31.284Z,0.81
2024-03-15T07:00:30.505Z,0.81
2024-03-15T07:01:30.472Z,0.84
2024-03-15T07:02:30.792Z,0.86
2024-03-15T07:03:30.439Z,0.88
2024-03-15T07:04:30.454Z,0.90
2024-03-15T07:05:30.453Z,0.91
2024-03-15T07:06:30.509Z,0.97
2024-03-15T07:07:30.757Z,0.95
2024-03-15T07:08:30.477Z,0.99
2024-03-15T07:09:30.450Z,1.01
2024-03-15T07:10:30.563Z,1.02
2024-03-15T07:11:30.514Z,1.06
2024-03-15T07:12:30.495Z,1.12
2024-03-15T07:13:30.881Z,1.15
2024-03-15T07:14:31.251Z,1.14
2024-03-15T07:15:31.251Z,1.18
2024-03-15T07:16:30.472Z,1.21
2024-03-15T07:17:30.508Z,1.26
2024-03-15T07:18:30.661Z,1.26
2024-03-15T07:19:30.843Z,1.30
2024-03-15T07:20:30.854Z,1.34
2024-03-15T07:21:30.514Z,1.38
2024-03-15T07:22:31.799Z,1.41
2024-03-15T07:23:30.584Z,1.40
2024-03-15T07:24:30.483Z,1.42
2024-03-15T07:25:30.447Z,1.48
2024-03-15T07:26:30.782Z,1.50
2024-03-15T07:27:30.499Z,1.52
2024-03-15T07:28:30.606Z,1.50
2024-03-15T07:29:30.577Z,1.53
2024-03-15T07:30:30.605Z,1.52
2024-03-15T07:31:30.770Z,1.49
2024-03-15T07:32:30.797Z,1.51
2024-03-15T07:33:30.869Z,1.54
2024-03-15T07:34:31.776Z,1.53
2024-03-15T07:35:33.014Z,1.56
2024-03-15T07:36:31.175Z,1.53
2024-03-15T07:37:30.942Z,1.54
2024-03-15T07:38:31.038Z,1.59
2024-03-15T07:39:31.817Z,1.57
2024-03-15T07:40:31.173Z,1.61
2024-03-15T07:41:32.907Z,1.59
2024-03-15T07:42:31.848Z,1.70
2024-03-15T07:43:31.208Z,1.66
2024-03-15T07:44:31.639Z,1.64
2024-03-15T07:45:31.353Z,1.70
2024-03-15T07:46:31.264Z,1.68
2024-03-15T07:47:31.304Z,1.72
2024-03-15T07:48:31.311Z,1.70
2024-03-15T07:49:31.352Z,1.78
2024-03-15T07:50:31.751Z,1.80
2024-03-15T07:51:31.385Z,1.81
2024-03-15T07:52:31.634Z,1.82
2024-03-15T07:53:31.374Z,1.86
2024-03-15T07:54:31.421Z,1.83
2024-03-15T07:55:31.379Z,1.88
2024-03-15T07:56:31.384Z,1.88
2024-03-15T07:57:31.425Z,1.92
2024-03-15T07:58:31.774Z,1.90
2024-03-15T07:59:31.464Z,1.91
2024-03-15T08:00:31.515Z,1.90
2024-03-15T08:01:31.605Z,1.79
2024-03-15T08:02:31.782Z,1.78
2024-03-15T08:03:32.488Z,1.72
2024-03-15T08:04:34.058Z,1.69
2024-03-15T08:05:31.993Z,1.61
2024-03-15T08:06:31.689Z,1.64
2024-03-15T08:07:31.643Z,1.56
2024-03-15T08:08:31.658Z,1.57
2024-03-15T08:09:31.640Z,1.57
2024-03-15T08:10:31.645Z,1.58
2024-03-15T08:11:31.643Z,1.55
2024-03-15T08:12:31.807Z,1.55
2024-03-15T08:13:31.629Z,1.51
2024-03-15T08:14:31.706Z,1.49
2024-03-15T08:15:31.850Z,1.51
2024-03-15T08:16:31.646Z,1.48
2024-03-15T08:17:31.635Z,1.44
2024-03-15T08:18:31.911Z,1.41
2024-03-15T08:19:31.718Z,1.38
2024-03-15T08:20:31.824Z,1.32
2024-03-15T08:21:31.669Z,1.32
2024-03-15T08:22:31.792Z,1.32
2024-03-15T08:23:31.644Z,1.28
2024-03-15T08:24:31.675Z,1.23
2024-03-15T08:25:31.795Z,1.22
2024-03-15T08:26:31.774Z,1.17
2024-03-15T08:27:31.802Z,1.12
2024-03-15T08:28:31.742Z,1.10
2024-03-15T08:29:31.695Z,1.03
2024-03-15T08:30:31.790Z,1.04
2024-03-15T08:31:31.721Z,1.01
2024-03-15T08:32:31.857Z,1.01
2024-03-15T08:33:31.887Z,0.99
2024-03-15T08:34:31.790Z,0.99
2024-03-15T08:35:31.653Z,0.97
2024-03-15T08:36:31.722Z,0.96
2024-03-15T08:37:31.706Z,0.93
2024-03-15T08:38:31.807Z,0.94
2024-03-15T08:39:31.793Z,0.92
2024-03-15T08:40:32.260Z,0.91
2024-03-15T08:41:31.673Z,0.92
2024-03-15T08:42:31.880Z,0.87
2024-03-15T08:43:31.703Z,0.86
2024-03-15T08:44:31.824Z,0.89
2024-03-15T08:45:31.771Z,0.89
2024-03-15T08:46:32.766Z,0.85
2024-03-15T08:47:35.583Z,0.86
2024-03-15T08:48:32.914Z,0.86
2024-03-15T08:49:31.769Z,0.86
2024-03-15T08:50:31.780Z,0.86
2024-03-15T08:51:31.918Z,0.88
2024-03-15T08:52:31.741Z,0.88
2024-03-15T08:53:31.663Z,0.89
2024-03-15T08:54:32.424Z,0.85
2024-03-15T08:55:31.823Z,0.89
2024-03-15T08:56:31.784Z,0.88
2024-03-15T08:57:31.739Z,0.88
2024-03-15T08:58:31.819Z,0.85
2024-03-15T08:59:31.681Z,0.83
2024-03-15T09:00:31.835Z,0.84
2024-03-15T09:01:32.329Z,0.81
2024-03-15T09:02:31.753Z,0.79
2024-03-15T09:03:32.560Z,0.80
2024-03-15T09:04:31.813Z,0.77
2024-03-15T09:05:31.952Z,0.79
2024-03-15T09:06:31.900Z,0.78
2024-03-15T09:07:31.895Z,0.77
2024-03-15T09:08:31.956Z,0.78
2024-03-15T09:09:32.336Z,0.77
2024-03-15T09:10:32.062Z,0.80
2024-03-15T09:11:32.099Z,0.80
2024-03-15T09:12:33.865Z,0.83
2024-03-15T09:13:34.145Z,0.84
2024-03-15T09:14:32.264Z,0.84
2024-03-15T09:15:32.328Z,0.84
2024-03-15T09:16:32.261Z,0.87
2024-03-15T09:17:32.338Z,0.86
2024-03-15T09:18:32.422Z,0.86
2024-03-15T09:19:32.470Z,0.89
2024-03-15T09:20:32.463Z,0.89
2024-03-15T09:21:32.540Z,0.89
2024-03-15T09:22:32.596Z,0.91
2024-03-15T09:23:32.633Z,0.91
2024-03-15T09:24:32.781Z,0.93
2024-03-15T09:25:32.748Z,0.92
2024-03-15T09:26:32.871Z,0.93
2024-03-15T09:27:33.456Z,0.95
2024-03-15T09:28:34.872Z,0.98
2024-03-15T09:29:32.972Z,0.99
2024-03-15T09:30:33.066Z,0.96
2024-03-15T09:31:46.185Z,0.98
2024-03-15T09:32:34.160Z,0.99
2024-03-15T09:33:33.388Z,0.99
2024-03-15T09:34:33.131Z,1.00
2024-03-15T09:35:33.124Z,0.99
2024-03-15T09:36:33.136Z,0.99
2024-03-15T09:37:33.090Z,1.02
2024-03-15T09:38:33.090Z,1.00
2024-03-15T09:39:33.167Z,1.01
2024-03-15T09:40:33.114Z,1.03
2024-03-15T09:41:34.125Z,1.02
2024-03-15T09:42:33.576Z,1.03
2024-03-15T09:43:33.308Z,1.03
2024-03-15T09:44:33.129Z,1.04
2024-03-15T09:45:33.165Z,1.04
2024-03-15T09:46:33.183Z,1.06
2024-03-15T09:47:33.144Z,1.07
2024-03-15T09:48:34.208Z,1.09
2024-03-15T09:49:33.168Z,1.09
2024-03-15T09:50:33.173Z,1.07
2024-03-15T09:51:33.311Z,1.07
2024-03-15T09:52:33.177Z,1.09
2024-03-15T09:53:33.273Z,1.09
2024-03-15T09:54:35.559Z,1.11
2024-03-15T09:55:33.224Z,1.10
2024-03-15T09:56:33.219Z,1.10
2024-03-15T09:57:33.261Z,1.10
2024-03-15T09:58:33.237Z,1.11
2024-03-15T09:59:33.285Z,1.14
2024-03-15T10:00:33.322Z,1.15
2024-03-15T10:01:33.385Z,1.13
2024-03-15T10:02:33.279Z,1.16
2024-03-15T10:03:33.261Z,1.15
2024-03-15T10:04:33.365Z,1.12
2024-03-15T10:05:33.325Z,1.08
2024-03-15T10:06:33.329Z,1.05
2024-03-15T10:07:33.849Z,0.98
2024-03-15T10:08:33.298Z,0.95
2024-03-15T10:09:33.608Z,0.90
2024-03-15T10:10:33.269Z,0.84
2024-03-15T10:11:33.274Z,0.82
2024-03-15T10:12:33.325Z,0.70
2024-03-15T10:13:33.694Z,0.64
2024-03-15T10:14:33.294Z,0.62
2024-03-15T10:15:33.308Z,0.62
2024-03-15T10:16:33.359Z,0.60
2024-03-15T10:17:33.481Z,0.59
2024-03-15T10:18:33.344Z,0.58
2024-03-15T10:19:33.358Z,0.57
2024-03-15T10:20:33.282Z,0.58
2024-03-15T10:21:33.306Z,0.58
2024-03-15T10:22:33.281Z,0.59
2024-03-15T10:23:33.293Z,0.59
2024-03-15T10:24:33.278Z,0.60
2024-03-15T10:25:33.277Z,0.61
2024-03-15T10:26:33.278Z,0.61
2024-03-15T10:27:33.335Z,0.64
2024-03-15T10:28:33.426Z,0.64
2024-03-15T10:29:33.276Z,0.64
2024-03-15T10:30:33.494Z,0.65
2024-03-15T10:31:33.297Z,0.66
2024-03-15T10:32:33.323Z,0.68
2024-03-15T10:33:33.366Z,0.67
2024-03-15T10:34:33.264Z,0.69
2024-03-15T10:35:33.278Z,0.69
2024-03-15T10:36:33.415Z,0.68
2024-03-15T10:37:33.334Z,0.67
2024-03-15T10:38:33.297Z,0.66
2024-03-15T10:39:33.376Z,0.68
2024-03-15T10:40:33.336Z,0.71
2024-03-15T10:41:33.446Z,0.76
2024-03-15T10:42:33.339Z,0.77
2024-03-15T10:43:33.264Z,0.82
2024-03-15T10:44:33.270Z,0.84
2024-03-15T10:45:33.392Z,0.84
2024-03-15T10:46:33.303Z,0.85
2024-03-15T10:47:33.386Z,0.85
2024-03-15T10:48:33.485Z,0.85
2024-03-15T10:49:33.359Z,0.85
2024-03-15T10:50:33.325Z,0.86
2024-03-15T10:51:33.315Z,0.84
2024-03-15T10:52:33.287Z,0.86
2024-03-15T10:53:33.283Z,0.85
2024-03-15T10:54:33.310Z,0.83
2024-03-15T10:55:33.313Z,0.81
2024-03-15T10:56:33.321Z,0.81
2024-03-15T10:57:33.282Z,0.79
2024-03-15T10:58:33.334Z,0.79
2024-03-15T10:59:33.293Z,0.78
2024-03-15T11:00:33.325Z,0.77
2024-03-15T11:01:33.411Z,0.76
2024-03-15T11:02:33.303Z,0.75
2024-03-15T11:03:33.393Z,0.76
2024-03-15T11:04:33.405Z,0.74
2024-03-15T11:05:33.312Z,0.73
2024-03-15T11:06:33.359Z,0.72
2024-03-15T11:07:33.338Z,0.71
2024-03-15T11:08:33.447Z,0.70
2024-03-15T11:09:33.553Z,0.68
2024-03-15T11:10:33.477Z,0.68
2024-03-15T11:11:33.567Z,0.66
2024-03-15T11:12:33.646Z,0.67
2024-03-15T11:13:33.521Z,0.65
2024-03-15T11:14:33.580Z,0.65
2024-03-15T11:15:33.692Z,0.65
2024-03-15T11:16:33.655Z,0.66
2024-03-15T11:17:33.681Z,0.65
2024-03-15T11:18:33.801Z,0.64
2024-03-15T11:19:33.771Z,0.64
2024-03-15T11:20:33.807Z,0.63
2024-03-15T11:21:33.817Z,0.65
2024-03-15T11:22:33.924Z,0.65
2024-03-15T11:23:33.839Z,0.65
2024-03-15T11:24:33.898Z,0.66
2024-03-15T11:25:33.954Z,0.66
2024-03-15T11:26:33.950Z,0.65
2024-03-15T11:27:33.942Z,0.67
2024-03-15T11:28:33.930Z,0.66
2024-03-15T11:29:33.996Z,0.67
2024-03-15T11:30:34.117Z,0.67
2024-03-15T11:31:34.137Z,0.68
2024-03-15T11:32:34.026Z,0.68
2024-03-15T11:33:34.155Z,0.70
2024-03-15T11:34:34.273Z,0.70
2024-03-15T11:35:34.806Z,0.69
2024-03-15T11:36:34.113Z,0.71
2024-03-15T11:37:34.102Z,0.71
2024-03-15T11:38:34.179Z,0.72
2024-03-15T11:39:34.123Z,0.73
2024-03-15T11:40:34.434Z,0.74
2024-03-15T11:41:36.128Z,0.72
2024-03-15T11:42:34.337Z,0.76
2024-03-15T11:43:34.212Z,0.75
2024-03-15T11:44:34.217Z,0.75
2024-03-15T11:45:34.193Z,0.76
2024-03-15T11:46:34.233Z,0.75
2024-03-15T11:47:37.516Z,0.74
2024-03-15T11:48:34.162Z,0.75
2024-03-15T11:49:34.142Z,0.75
2024-03-15T11:50:34.162Z,0.75
2024-03-15T11:51:34.238Z,0.77
2024-03-15T11:52:34.198Z,0.78
2024-03-15T11:53:35.055Z,0.80
2024-03-15T11:54:34.248Z,0.78
2024-03-15T11:55:34.180Z,0.80
2024-03-15T11:56:34.246Z,0.79
2024-03-15T11:57:34.239Z,0.78
2024-03-15T11:58:34.150Z,0.79
2024-03-15T11:59:36.795Z,0.79
2024-03-15T12:00:34.205Z,0.79
2024-03-15T12:01:34.363Z,0.79
2024-03-15T12:02:34.182Z,0.80
2024-03-15T12:03:34.181Z,0.80
2024-03-15T12:04:34.156Z,0.81
2024-03-15T12:05:34.884Z,0.81
2024-03-15T12:06:34.158Z,0.82
2024-03-15T12:07:34.166Z,0.82
2024-03-15T12:08:34.150Z,0.80
2024-03-15T12:09:34.262Z,0.79
2024-03-15T12:10:34.174Z,0.82
2024-03-15T12:11:35.794Z,0.82
2024-03-15T12:12:34.205Z,0.81
2024-03-15T12:13:34.217Z,0.81
2024-03-15T12:14:34.210Z,0.83
2024-03-15T12:15:34.273Z,0.82
2024-03-15T12:16:34.169Z,0.82
2024-03-15T12:17:35.474Z,0.83
2024-03-15T12:18:34.472Z,0.82
2024-03-15T12:19:34.425Z,0.83
2024-03-15T12:20:34.423Z,0.82
2024-03-15T12:21:34.462Z,0.82
2024-03-15T12:22:34.476Z,0.84
2024-03-15T12:23:36.766Z,0.84
2024-03-15T12:24:34.569Z,0.84
2024-03-15T12:25:34.489Z,0.83
2024-03-15T12:26:34.579Z,0.85
2024-03-15T12:27:34.573Z,0.85
2024-03-15T12:28:34.503Z,0.84
2024-03-15T12:29:36.891Z,0.84
2024-03-15T12:30:34.542Z,0.84
2024-03-15T12:31:34.525Z,0.85
2024-03-15T12:32:34.477Z,0.85
2024-03-15T12:33:34.561Z,0.85
2024-03-15T12:34:34.527Z,0.84
2024-03-15T12:35:36.712Z,0.83
2024-03-15T12:36:34.571Z,0.84
2024-03-15T12:37:34.570Z,0.84
2024-03-15T12:38:34.531Z,0.84
2024-03-15T12:39:34.584Z,0.85
2024-03-15T12:40:34.887Z,0.86
2024-03-15T12:41:36.182Z,0.87
2024-03-15T12:42:34.508Z,0.85
2024-03-15T12:43:37.386Z,0.87
2024-03-15T12:44:34.512Z,0.87
2024-03-15T12:45:34.550Z,0.87
2024-03-15T12:46:34.529Z,0.86
2024-03-15T12:47:34.518Z,0.86
2024-03-15T12:48:34.550Z,0.86
2024-03-15T12:49:34.533Z,0.86
2024-03-15T12:50:34.501Z,0.86
2024-03-15T12:51:34.632Z,0.86
2024-03-15T12:52:34.504Z,0.85
2024-03-15T12:53:34.526Z,0.85
2024-03-15T12:54:34.590Z,0.84
2024-03-15T12:55:34.527Z,0.85
2024-03-15T12:56:34.537Z,0.84
2024-03-15T12:57:34.593Z,0.83
2024-03-15T12:58:34.568Z,0.83
2024-03-15T12:59:34.523Z,0.84
2024-03-15T13:00:34.535Z,0.83
2024-03-15T13:01:34.568Z,0.83
2024-03-15T13:02:34.540Z,0.83
2024-03-15T13:03:34.585Z,0.85
2024-03-15T13:04:34.531Z,0.82
2024-03-15T13:05:34.840Z,0.83
2024-03-15T13:06:34.586Z,0.85
2024-03-15T13:07:34.675Z,0.84
2024-03-15T13:08:34.520Z,0.83
2024-03-15T13:09:34.552Z,0.82
2024-03-15T13:10:34.712Z,0.84
2024-03-15T13:11:34.591Z,0.85
2024-03-15T13:12:34.598Z,0.83
2024-03-15T13:13:34.572Z,0.84
2024-03-15T13:14:34.573Z,0.84
2024-03-15T13:15:34.698Z,0.84
2024-03-15T13:16:34.523Z,0.85
2024-03-15T13:17:34.624Z,0.84
2024-03-15T13:18:34.553Z,0.86
2024-03-15T13:19:34.561Z,0.85